Colorado Springs, CO (80921)

10:12 AM MDT on July 06, 2015 (GMT -0600)
Struthers Ranch | | Change Station
CLOSE
Current Station
Personal Weather Station
Location: Colorado Springs, CO
Elevation: 6867 ft
Nearby Weather Stations

Elev 6867 ft 39.04 °N, 104.83 °W | Updated 12 seconds ago

Mostly Cloudy
Mostly Cloudy
62.6 °F
Feels Like 62.6 °F
N
5.1
Wind Variable Wind from WNW

Today
High -- | Low -- °F
--% Chance of Precip.
Yesterday
High -- | Low -- °F
Precip. -- in
5:39 AM 8:28 PM
Waning Gibbous, 74% visible
Pressure 30.05 in
Visibility 10.0 miles
Clouds Few 1600 ft
Scattered Clouds 18000 ft
Scattered Clouds 21000 ft
Dew Point 56 °F
Humidity 80%
Rainfall 0.00 in
Snow Depth Not available.
UV 6 out of 12
Pollen 2.80 out of 12
Air Quality Not available.
Flu Activity Not available.
METAR KAFF 061558Z 03011KT 10SM FEW016 SCT180 SCT210 18/13 A3028 RMK AO2A SLP174 T01820134

More Conditions Fewer Conditions

Pressure 30.05 in
Visibility 10.0 miles
Clouds Few 1600 ft
Scattered Clouds 18000 ft
Scattered Clouds 21000 ft
Dew Point 56 °F
Humidity 80%
Rainfall 0.00 in
Snow Depth Not available.
UV 6 out of 12
Pollen 2.80 out of 12
Air Quality Not available.
Flu Activity Not available.
METAR KAFF 061558Z 03011KT 10SM FEW016 SCT180 SCT210 18/13 A3028 RMK AO2A SLP174 T01820134

More Conditions Fewer Conditions

10-Day Weather Forecast

×

Almanac

Astronomy

Jul. 06, 2015 Rise Set
Actual Time
Civil Twilight
Nautical Twilight
Astronomical Twilight
Moon
Length of Visible Light
Length of Day
Tomorrow will be .
, % of the Moon is Illuminated

Today's Extremes

State Highs State Lows

Community

WunderPhotos

Upload Photos

1,835,586 photos uploaded!

WunderBlogs® & News

Nearby

Air Quality

  Air Quality AQ Index Pollutant
Not available.

Snow Depth

Station Depth Elevation

Earthquake Activity

City Distance Mag. Time & Date
Minimum magnitude displayed is 2.5.

Coastal Water Temperatures

Place Temperature

Stations

Nearby Weather Stations

Station Location Temp. Windchill Dew Point Humidity Wind Precip. Elev Updated Type